Time;durP1;ratioP1;P1;durP2;ratioP2;P2;SDS_P1;SDS_P2;PMS_P1;PMS_P2;Temp;Humidity;BMP_temperature;BMP_pressure;BME280_temperature;BME280_humidity;BME280_pressure;Samples;Min_cycle;Max_cycle;Signal;HPM_P1;HPM_P2
2020/12/03 00:00:05;;;;;;;32.97;14.63;;;;;;;;;;5039037;28;20939;-73
2020/12/03 00:02:31;;;;;;;32.93;14.60;;;;;;;;;;5053414;28;20965;-73
2020/12/03 00:04:57;;;;;;;30.77;14.60;;;;;;;;;;5054363;28;20773;-73
2020/12/03 00:07:23;;;;;;;37.60;15.40;;;;;;;;;;5053497;28;20422;-75
2020/12/03 00:09:49;;;;;;;35.17;17.00;;;;;;;;;;5052575;28;20412;-74
2020/12/03 00:12:15;;;;;;;35.13;15.83;;;;;;;;;;5043925;28;20451;-73
2020/12/03 00:14:41;;;;;;;34.77;13.90;;;;;;;;;;5034027;28;20407;-73
2020/12/03 00:17:07;;;;;;;36.47;15.27;;;;;;;;;;5043549;28;20505;-73
2020/12/03 00:19:34;;;;;;;38.20;16.37;;;;;;;;;;5053763;28;20762;-74
2020/12/03 00:22:00;;;;;;;34.73;14.60;;;;;;;;;;5053545;28;20461;-74
2020/12/03 00:24:28;;;;;;;32.03;14.10;;;;;;;;;;5053722;28;20402;-74
2020/12/03 00:26:54;;;;;;;35.17;16.50;;;;;;;;;;5052865;28;20426;-73
2020/12/03 00:29:21;;;;;;;39.67;17.93;;;;;;;;;;5053637;28;20825;-74
2020/12/03 00:31:48;;;;;;;36.40;14.27;;;;;;;;;;5053051;28;20420;-74
2020/12/03 00:34:14;;;;;;;34.23;16.53;;;;;;;;;;5056294;28;20477;-74
2020/12/03 00:36:41;;;;;;;40.43;18.00;;;;;;;;;;5056932;28;20434;-74
2020/12/03 00:39:08;;;;;;;35.03;17.00;;;;;;;;;;5059018;28;20398;-74
2020/12/03 00:41:34;;;;;;;33.40;16.10;;;;;;;;;;5057675;28;20421;-73
2020/12/03 00:44:00;;;;;;;35.53;15.83;;;;;;;;;;5054610;28;20418;-74
2020/12/03 00:46:30;;;;;;;45.20;16.23;;;;;;;;;;5057182;28;20449;-74
2020/12/03 00:48:56;;;;;;;32.87;15.73;;;;;;;;;;5054889;28;20409;-74
2020/12/03 00:51:22;;;;;;;33.43;16.50;;;;;;;;;;5053372;28;20398;-74
2020/12/03 00:53:48;;;;;;;28.63;15.37;;;;;;;;;;5053381;28;20440;-74
2020/12/03 00:56:17;;;;;;;33.57;16.30;;;;;;;;;;5052812;28;20406;-74
2020/12/03 00:58:43;;;;;;;34.63;14.70;;;;;;;;;;5053228;28;20771;-74
2020/12/03 01:01:09;;;;;;;36.93;16.00;;;;;;;;;;5052553;28;20406;-74
2020/12/03 01:03:35;;;;;;;20.07;12.33;;;;;;;;;;5052873;28;20476;-74
2020/12/03 01:06:01;;;;;;;34.67;16.27;;;;;;;;;;5051855;28;20426;-74
2020/12/03 01:08:27;;;;;;;27.70;14.90;;;;;;;;;;5052843;28;20476;-74
2020/12/03 01:10:53;;;;;;;40.83;16.00;;;;;;;;;;5051367;28;20398;-74
2020/12/03 01:13:19;;;;;;;35.80;15.07;;;;;;;;;;5049200;28;20445;-74
2020/12/03 01:15:45;;;;;;;33.33;13.80;;;;;;;;;;5052973;28;20405;-74
2020/12/03 01:18:11;;;;;;;41.83;16.47;;;;;;;;;;5051957;28;20516;-74
2020/12/03 01:20:37;;;;;;;23.37;13.27;;;;;;;;;;5052947;28;20479;-74
2020/12/03 01:23:03;;;;;;;32.13;16.37;;;;;;;;;;5052296;28;20465;-74
2020/12/03 01:25:30;;;;;;;29.93;14.40;;;;;;;;;;5051651;28;20414;-74
2020/12/03 01:27:56;;;;;;;40.03;16.60;;;;;;;;;;5051940;28;20436;-74
2020/12/03 01:30:22;;;;;;;41.67;15.93;;;;;;;;;;5052823;28;20405;-74
2020/12/03 01:32:49;;;;;;;27.90;14.97;;;;;;;;;;5052059;28;20845;-74
2020/12/03 01:35:16;;;;;;;40.53;15.87;;;;;;;;;;5052938;28;20406;-74
2020/12/03 01:37:42;;;;;;;44.73;15.10;;;;;;;;;;5051381;28;20485;-74
2020/12/03 01:40:10;;;;;;;34.03;16.23;;;;;;;;;;5051904;28;20431;-74
2020/12/03 01:42:38;;;;;;;43.13;19.40;;;;;;;;;;5049691;28;20996;-74
2020/12/03 01:45:04;;;;;;;36.07;16.63;;;;;;;;;;5052967;28;20402;-74
2020/12/03 01:47:35;;;;;;;35.67;15.93;;;;;;;;;;5051995;28;20429;-74
2020/12/03 01:50:02;;;;;;;42.57;17.50;;;;;;;;;;5051582;28;20432;-74
2020/12/03 01:52:28;;;;;;;38.57;16.80;;;;;;;;;;5051294;28;20529;-74
2020/12/03 01:54:54;;;;;;;27.17;14.20;;;;;;;;;;5052133;28;20466;-73
2020/12/03 01:57:35;;;;;;;38.07;15.50;;;;;;;;;;5052621;28;20478;-74
2020/12/03 02:00:27;;;;;;;27.67;15.40;;;;;;;;;;5051684;28;20441;-74
2020/12/03 02:02:53;;;;;;;36.93;16.13;;;;;;;;;;5050669;28;20997;-75
2020/12/03 02:05:22;;;;;;;29.50;13.30;;;;;;;;;;5048039;28;20777;-74
2020/12/03 02:07:48;;;;;;;43.53;16.90;;;;;;;;;;5032859;28;20494;-75
2020/12/03 02:10:15;;;;;;;35.77;13.30;;;;;;;;;;5052221;28;20467;-74
2020/12/03 02:12:41;;;;;;;30.30;14.10;;;;;;;;;;5052401;28;20433;-74
2020/12/03 02:15:09;;;;;;;35.27;13.97;;;;;;;;;;5049997;28;20532;-74
2020/12/03 02:17:35;;;;;;;29.30;13.43;;;;;;;;;;5054939;28;20406;-74
2020/12/03 02:20:02;;;;;;;33.20;15.07;;;;;;;;;;5053588;28;20451;-74
2020/12/03 02:22:36;;;;;;;27.50;11.43;;;;;;;;;;5055652;28;20473;-74
2020/12/03 02:25:03;;;;;;;26.33;12.80;;;;;;;;;;5041964;28;20781;-74
2020/12/03 02:27:29;;;;;;;35.07;13.60;;;;;;;;;;5056076;28;20402;-74
2020/12/03 02:29:55;;;;;;;30.47;12.70;;;;;;;;;;5055560;28;20836;-74
2020/12/03 02:32:21;;;;;;;27.00;13.57;;;;;;;;;;5055523;28;20795;-74
2020/12/03 02:34:48;;;;;;;23.47;12.23;;;;;;;;;;5054854;28;20876;-74
2020/12/03 02:37:14;;;;;;;28.80;13.30;;;;;;;;;;5055710;28;20777;-74
2020/12/03 02:39:41;;;;;;;41.17;13.40;;;;;;;;;;5054937;28;20422;-74
2020/12/03 02:42:08;;;;;;;26.77;11.37;;;;;;;;;;5055399;28;20736;-74
2020/12/03 02:44:35;;;;;;;34.83;13.30;;;;;;;;;;5054814;28;20426;-74
2020/12/03 02:47:01;;;;;;;26.63;10.87;;;;;;;;;;5055604;28;20908;-74
2020/12/03 02:49:27;;;;;;;30.47;12.63;;;;;;;;;;5054994;28;20410;-74
2020/12/03 02:51:53;;;;;;;19.90;11.37;;;;;;;;;;5055293;28;20402;-74
2020/12/03 02:54:19;;;;;;;30.70;14.53;;;;;;;;;;5055041;28;20857;-74
2020/12/03 02:56:45;;;;;;;29.03;13.03;;;;;;;;;;5047575;28;20434;-74
2020/12/03 02:59:11;;;;;;;37.03;13.90;;;;;;;;;;5054753;28;20425;-74
2020/12/03 03:01:38;;;;;;;27.50;12.50;;;;;;;;;;5054360;28;20402;-74
2020/12/03 03:04:04;;;;;;;21.70;12.97;;;;;;;;;;5057088;28;20426;-73
2020/12/03 03:06:31;;;;;;;23.20;11.10;;;;;;;;;;5075692;28;20421;-73
2020/12/03 03:08:57;;;;;;;27.87;13.33;;;;;;;;;;5074120;28;20392;-74
2020/12/03 03:11:23;;;;;;;35.43;12.23;;;;;;;;;;5075161;28;20472;-73
2020/12/03 03:13:49;;;;;;;24.30;14.20;;;;;;;;;;5073127;28;20409;-73
2020/12/03 03:16:15;;;;;;;30.60;14.20;;;;;;;;;;5054678;28;20429;-74
2020/12/03 03:18:42;;;;;;;33.07;13.20;;;;;;;;;;5054960;28;20424;-75
2020/12/03 03:21:08;;;;;;;37.87;15.60;;;;;;;;;;5073154;28;20453;-73
2020/12/03 03:23:34;;;;;;;32.33;13.00;;;;;;;;;;5075048;28;20459;-77
2020/12/03 03:26:00;;;;;;;28.13;13.27;;;;;;;;;;5073233;28;20425;-74
2020/12/03 03:28:26;;;;;;;37.07;13.77;;;;;;;;;;5072710;28;20447;-74
2020/12/03 03:30:52;;;;;;;29.87;14.77;;;;;;;;;;5057296;28;20417;-74
2020/12/03 03:33:18;;;;;;;36.60;14.83;;;;;;;;;;5054614;28;21004;-75
2020/12/03 03:35:44;;;;;;;31.90;14.30;;;;;;;;;;5068891;28;20418;-74
2020/12/03 03:38:10;;;;;;;31.87;12.63;;;;;;;;;;5074604;28;20762;-74
2020/12/03 03:40:36;;;;;;;29.40;11.97;;;;;;;;;;5072868;28;20475;-74
2020/12/03 03:43:02;;;;;;;31.60;13.50;;;;;;;;;;5074214;28;20453;-74
2020/12/03 03:45:28;;;;;;;29.27;13.90;;;;;;;;;;5060250;28;20920;-74
2020/12/03 03:47:54;;;;;;;31.53;12.17;;;;;;;;;;5053092;28;20417;-74
2020/12/03 03:50:20;;;;;;;29.83;14.10;;;;;;;;;;5052654;28;20425;-74
2020/12/03 03:52:46;;;;;;;30.23;13.93;;;;;;;;;;5053528;28;20453;-74
2020/12/03 03:55:13;;;;;;;33.50;13.20;;;;;;;;;;5053544;28;20906;-74
2020/12/03 03:57:38;;;;;;;31.50;12.80;;;;;;;;;;5054180;28;20410;-74
2020/12/03 04:00:05;;;;;;;35.37;14.30;;;;;;;;;;5061692;28;20516;-74
2020/12/03 04:02:31;;;;;;;32.93;15.43;;;;;;;;;;5069306;28;20516;-74
2020/12/03 04:04:57;;;;;;;37.13;14.13;;;;;;;;;;5060668;28;20460;-74
2020/12/03 04:07:23;;;;;;;29.77;14.60;;;;;;;;;;5073966;28;20519;-74
2020/12/03 04:09:49;;;;;;;36.83;13.77;;;;;;;;;;5066266;28;20429;-74
2020/12/03 04:12:15;;;;;;;26.07;13.67;;;;;;;;;;5054020;28;20452;-74
2020/12/03 04:14:42;;;;;;;34.20;13.20;;;;;;;;;;5057866;28;20859;-74
2020/12/03 04:17:08;;;;;;;39.50;13.43;;;;;;;;;;5058607;28;20441;-74
2020/12/03 04:19:34;;;;;;;30.13;12.20;;;;;;;;;;5056488;28;20507;-74
2020/12/03 04:22:00;;;;;;;36.00;13.40;;;;;;;;;;5073638;28;20451;-74
2020/12/03 04:24:26;;;;;;;29.03;11.93;;;;;;;;;;5069632;28;20443;-74
2020/12/03 04:26:52;;;;;;;28.20;12.50;;;;;;;;;;5053805;28;20463;-74
2020/12/03 04:29:18;;;;;;;31.30;12.53;;;;;;;;;;5053580;28;20398;-74
2020/12/03 04:31:45;;;;;;;24.30;12.60;;;;;;;;;;5073537;28;20409;-74
2020/12/03 04:34:11;;;;;;;30.40;13.47;;;;;;;;;;5072567;28;20394;-75
2020/12/03 04:36:37;;;;;;;27.83;14.43;;;;;;;;;;5073322;28;20405;-74
2020/12/03 04:39:04;;;;;;;31.70;12.40;;;;;;;;;;5073437;28;20606;-74
2020/12/03 04:41:30;;;;;;;30.70;13.13;;;;;;;;;;5070511;28;20861;-74
2020/12/03 04:44:04;;;;;;;32.90;12.20;;;;;;;;;;5073201;28;20611;-73
2020/12/03 04:46:30;;;;;;;27.33;12.17;;;;;;;;;;5071892;28;20512;-74
2020/12/03 04:49:23;;;;;;;28.93;11.70;;;;;;;;;;5073543;28;20500;-74
2020/12/03 04:51:58;;;;;;;34.03;11.53;;;;;;;;;;5033520;28;20391;-74
2020/12/03 04:54:24;;;;;;;31.43;11.90;;;;;;;;;;5034660;28;20405;-74
2020/12/03 04:56:50;;;;;;;34.30;12.43;;;;;;;;;;5053466;28;20415;-74
2020/12/03 04:59:25;;;;;;;31.50;11.80;;;;;;;;;;5052716;28;20868;-74
2020/12/03 05:02:10;;;;;;;22.80;11.63;;;;;;;;;;5033498;28;20433;-74
2020/12/03 05:04:38;;;;;;;32.30;13.03;;;;;;;;;;5037724;28;20434;-74
2020/12/03 05:07:11;;;;;;;34.00;13.50;;;;;;;;;;5073076;28;20389;-74
2020/12/03 05:09:46;;;;;;;40.53;14.60;;;;;;;;;;5054381;28;20521;-75
2020/12/03 05:12:16;;;;;;;25.23;11.70;;;;;;;;;;5072998;28;20417;-75
2020/12/03 05:14:48;;;;;;;22.80;12.60;;;;;;;;;;5067037;28;20508;-74
2020/12/03 05:17:26;;;;;;;23.10;12.07;;;;;;;;;;5033282;28;20391;-75
2020/12/03 05:20:01;;;;;;;29.63;11.60;;;;;;;;;;5046579;28;20567;-75
2020/12/03 05:22:28;;;;;;;25.27;9.13;;;;;;;;;;5052630;28;20456;-75
2020/12/03 05:24:54;;;;;;;24.73;11.07;;;;;;;;;;5052715;28;20559;-75
2020/12/03 05:27:22;;;;;;;34.50;12.47;;;;;;;;;;5052953;28;20402;-74
2020/12/03 05:29:48;;;;;;;29.63;11.77;;;;;;;;;;5054806;28;20426;-74
2020/12/03 05:32:14;;;;;;;29.60;12.13;;;;;;;;;;5073001;28;20497;-75
2020/12/03 05:34:41;;;;;;;33.37;15.13;;;;;;;;;;5070596;28;20417;-75
2020/12/03 05:37:12;;;;;;;27.50;13.53;;;;;;;;;;5052848;28;20402;-74
2020/12/03 05:39:42;;;;;;;26.00;12.17;;;;;;;;;;5052416;28;20410;-75
2020/12/03 05:42:11;;;;;;;32.27;12.40;;;;;;;;;;5036972;28;20548;-75
2020/12/03 05:44:40;;;;;;;29.47;13.70;;;;;;;;;;5052197;28;20434;-75
2020/12/03 05:47:21;;;;;;;29.67;11.57;;;;;;;;;;5052683;28;20405;-74
2020/12/03 05:49:47;;;;;;;33.80;14.13;;;;;;;;;;5052237;28;20386;-74
2020/12/03 05:52:21;;;;;;;26.10;12.50;;;;;;;;;;5054477;28;20468;-74
2020/12/03 05:55:06;;;;;;;36.90;12.37;;;;;;;;;;5054593;28;20394;-74
2020/12/03 05:57:39;;;;;;;32.10;10.97;;;;;;;;;;5036848;28;20489;-74
2020/12/03 06:00:14;;;;;;;30.03;12.47;;;;;;;;;;5040950;28;20817;-74
2020/12/03 06:02:40;;;;;;;27.40;11.70;;;;;;;;;;5056360;28;20449;-74
2020/12/03 06:05:26;;;;;;;28.80;12.43;;;;;;;;;;5055188;28;20414;-74
2020/12/03 06:07:52;;;;;;;23.77;10.73;;;;;;;;;;5055833;28;20918;-74
2020/12/03 06:10:31;;;;;;;34.87;11.90;;;;;;;;;;5050955;28;20419;-74
2020/12/03 06:13:00;;;;;;;22.70;12.43;;;;;;;;;;5036049;28;20422;-74
2020/12/03 06:15:41;;;;;;;25.70;11.67;;;;;;;;;;5042351;28;20429;-74
2020/12/03 06:18:16;;;;;;;31.27;12.40;;;;;;;;;;5055854;28;20879;-74
2020/12/03 06:21:05;;;;;;;29.47;12.17;;;;;;;;;;5054537;28;20464;-74
2020/12/03 06:23:31;;;;;;;26.23;11.07;;;;;;;;;;5025151;28;20908;-72
2020/12/03 06:26:08;;;;;;;26.77;12.57;;;;;;;;;;5054870;28;20529;-71
2020/12/03 06:28:37;;;;;;;35.93;13.27;;;;;;;;;;5056241;28;20505;-70
2020/12/03 06:31:13;;;;;;;34.03;12.07;;;;;;;;;;5053489;28;20434;-73
2020/12/03 06:33:44;;;;;;;29.47;12.60;;;;;;;;;;5054131;28;20583;-75
2020/12/03 06:36:20;;;;;;;28.13;11.33;;;;;;;;;;5047529;28;20760;-76
2020/12/03 06:39:09;;;;;;;21.63;11.23;;;;;;;;;;5054983;28;20974;-74
2020/12/03 06:41:35;;;;;;;35.97;14.80;;;;;;;;;;5048037;28;20426;-78
2020/12/03 06:44:22;;;;;;;33.37;11.73;;;;;;;;;;5042306;28;20447;-77
2020/12/03 06:46:48;;;;;;;40.07;16.00;;;;;;;;;;5052158;28;20430;-74
2020/12/03 06:49:32;;;;;;;40.63;14.80;;;;;;;;;;5055012;28;20421;-72
2020/12/03 06:51:58;;;;;;;28.47;11.97;;;;;;;;;;5055032;28;20458;-71
2020/12/03 06:54:24;;;;;;;24.87;11.50;;;;;;;;;;5055504;28;20958;-72
2020/12/03 06:57:05;;;;;;;31.83;14.20;;;;;;;;;;5054719;28;20512;-72
2020/12/03 06:59:38;;;;;;;36.07;13.23;;;;;;;;;;5055344;28;20455;-71
2020/12/03 07:02:24;;;;;;;40.58;17.75;;;;;;;;;;5054836;28;20424;-78
2020/12/03 07:05:09;;;;;;;37.47;16.40;;;;;;;;;;5056598;28;20175;-79
2020/12/03 07:07:46;;;;;;;42.63;15.40;;;;;;;;;;5049142;28;20410;-77
2020/12/03 07:10:31;;;;;;;35.97;14.73;;;;;;;;;;5055986;28;20482;-77
2020/12/03 07:13:00;;;;;;;29.67;12.67;;;;;;;;;;5057068;28;20771;-76
2020/12/03 07:15:38;;;;;;;25.43;13.63;;;;;;;;;;5052124;28;20521;-73
2020/12/03 07:18:20;;;;;;;29.60;11.70;;;;;;;;;;5055017;28;20754;-73
2020/12/03 07:21:04;;;;;;;25.50;11.40;;;;;;;;;;5051931;28;20421;-76
2020/12/03 07:24:03;;;;;;;30.03;12.07;;;;;;;;;;5042184;28;20493;-78
2020/12/03 07:26:35;;;;;;;37.80;14.77;;;;;;;;;;5040766;28;20426;-74
2020/12/03 07:29:02;;;;;;;38.10;12.97;;;;;;;;;;5054340;28;20417;-73
2020/12/03 07:31:32;;;;;;;26.73;14.07;;;;;;;;;;5053761;28;20530;-71
2020/12/03 07:34:16;;;;;;;34.55;15.93;;;;;;;;;;5053746;28;20515;-75
2020/12/03 07:36:59;;;;;;;36.23;14.10;;;;;;;;;;5050413;28;20179;-74
2020/12/03 07:39:28;;;;;;;27.90;13.00;;;;;;;;;;5040213;28;20904;-74
2020/12/03 07:41:58;;;;;;;37.27;13.23;;;;;;;;;;5051990;28;20438;-76
2020/12/03 07:44:37;;;;;;;31.20;12.73;;;;;;;;;;5046001;28;20453;-77
2020/12/03 07:47:21;;;;;;;31.83;13.70;;;;;;;;;;5033896;28;20426;-72
2020/12/03 07:49:49;;;;;;;35.83;11.97;;;;;;;;;;5046542;28;20788;-74
2020/12/03 07:52:26;;;;;;;30.57;13.43;;;;;;;;;;5042321;28;20536;-71
2020/12/03 07:54:52;;;;;;;30.57;14.60;;;;;;;;;;5044484;28;20927;-74
2020/12/03 07:57:25;;;;;;;31.97;13.27;;;;;;;;;;5048509;28;20422;-72
2020/12/03 07:59:51;;;;;;;29.03;13.33;;;;;;;;;;5047337;28;20525;-75
2020/12/03 08:02:36;;;;;;;26.27;13.00;;;;;;;;;;5043789;28;20481;-75
2020/12/03 08:05:22;;;;;;;29.30;13.73;;;;;;;;;;5048601;28;20417;-75
2020/12/03 08:07:49;;;;;;;34.23;12.60;;;;;;;;;;5041247;28;20431;-72
2020/12/03 08:10:41;;;;;;;34.30;16.33;;;;;;;;;;5049348;28;20419;-72
2020/12/03 08:13:28;;;;;;;29.27;14.27;;;;;;;;;;5037373;28;20455;-74
2020/12/03 08:15:55;;;;;;;30.23;14.00;;;;;;;;;;5042760;28;20828;-73
2020/12/03 08:18:35;;;;;;;34.77;15.03;;;;;;;;;;5050227;28;20460;-73
2020/12/03 08:21:01;;;;;;;35.07;14.03;;;;;;;;;;5040115;28;20436;-72
2020/12/03 08:23:27;;;;;;;31.00;14.20;;;;;;;;;;5042721;28;20469;-73
2020/12/03 08:25:53;;;;;;;29.87;12.63;;;;;;;;;;5048002;28;20458;-73
2020/12/03 08:28:21;;;;;;;25.80;12.67;;;;;;;;;;5052558;28;20474;-76
2020/12/03 08:30:51;;;;;;;31.77;12.00;;;;;;;;;;5049020;28;20410;-74
2020/12/03 08:33:23;;;;;;;23.50;10.97;;;;;;;;;;5043253;28;20484;-71
2020/12/03 08:35:51;;;;;;;29.73;10.70;;;;;;;;;;5045083;28;20415;-72
2020/12/03 08:38:22;;;;;;;29.90;12.67;;;;;;;;;;5043066;28;20423;-69
2020/12/03 08:40:50;;;;;;;23.50;11.50;;;;;;;;;;5046658;28;20826;-72
2020/12/03 08:43:17;;;;;;;26.45;14.07;;;;;;;;;;5044090;28;20445;-70
2020/12/03 08:45:50;;;;;;;27.73;11.43;;;;;;;;;;5038581;28;20199;-72
2020/12/03 08:48:20;;;;;;;25.33;12.13;;;;;;;;;;5042171;28;20423;-74
2020/12/03 08:50:46;;;;;;;21.17;11.93;;;;;;;;;;5044249;28;20405;-73
2020/12/03 08:53:12;;;;;;;26.53;12.53;;;;;;;;;;5045589;28;20503;-72
2020/12/03 08:55:39;;;;;;;23.35;11.88;;;;;;;;;;5036710;28;20368;-76
2020/12/03 08:58:06;;;;;;;29.30;13.80;;;;;;;;;;5046960;28;20218;-73
2020/12/03 09:00:34;;;;;;;25.17;11.87;;;;;;;;;;5033135;28;20513;-75
2020/12/03 09:03:00;;;;;;;28.85;15.38;;;;;;;;;;5037816;28;20440;-77
2020/12/03 09:05:26;;;;;;;28.53;14.50;;;;;;;;;;5044264;28;20199;-75
2020/12/03 09:07:57;;;;;;;28.43;13.90;;;;;;;;;;5048681;28;20770;-75
2020/12/03 09:10:23;;;;;;;22.17;11.43;;;;;;;;;;5042386;28;20419;-81
2020/12/03 09:12:52;;;;;;;23.30;12.27;;;;;;;;;;5045622;28;20450;-74
2020/12/03 09:15:18;;;;;;;24.40;11.10;;;;;;;;;;5041231;28;20441;-71
2020/12/03 09:17:49;;;;;;;24.97;11.37;;;;;;;;;;5044846;28;20426;-72
2020/12/03 09:20:15;;;;;;;24.13;12.43;;;;;;;;;;5040781;28;20459;-73
2020/12/03 09:22:41;;;;;;;23.50;12.20;;;;;;;;;;5041717;28;20466;-77
2020/12/03 09:25:11;;;;;;;20.87;11.30;;;;;;;;;;5038542;28;20459;-78
2020/12/03 09:27:41;;;;;;;27.60;13.63;;;;;;;;;;5042260;28;20966;-77
2020/12/03 09:30:16;;;;;;;32.87;16.20;;;;;;;;;;5046386;28;20409;-77
2020/12/03 09:32:43;;;;;;;24.13;12.93;;;;;;;;;;5046944;28;20540;-76
2020/12/03 09:35:10;;;;;;;19.77;11.70;;;;;;;;;;5049771;28;20413;-74
2020/12/03 09:37:36;;;;;;;28.90;13.30;;;;;;;;;;5051673;28;20430;-79
2020/12/03 09:40:03;;;;;;;23.95;13.65;;;;;;;;;;5044772;28;20545;-74
2020/12/03 09:42:35;;;;;;;29.30;12.87;;;;;;;;;;5047417;28;20567;-74
2020/12/03 09:45:07;;;;;;;30.70;15.17;;;;;;;;;;5044814;28;20406;-75
2020/12/03 09:47:34;;;;;;;23.33;12.50;;;;;;;;;;5044457;28;20890;-73
2020/12/03 09:50:00;;;;;;;29.30;12.83;;;;;;;;;;5047037;28;20513;-72
2020/12/03 09:52:27;;;;;;;19.70;11.17;;;;;;;;;;5041404;28;20528;-75
2020/12/03 09:54:53;;;;;;;26.27;12.80;;;;;;;;;;5041903;28;20423;-77
2020/12/03 09:57:19;;;;;;;20.87;11.60;;;;;;;;;;5045442;28;20629;-77
2020/12/03 09:59:45;;;;;;;30.73;12.13;;;;;;;;;;5043666;28;20974;-75
2020/12/03 10:02:14;;;;;;;24.70;14.13;;;;;;;;;;5043962;28;20439;-70
2020/12/03 10:04:52;;;;;;;25.00;12.93;;;;;;;;;;5047235;28;20424;-73
2020/12/03 10:07:21;;;;;;;28.20;12.47;;;;;;;;;;5044720;28;20468;-74
2020/12/03 10:10:23;;;;;;;25.00;13.03;;;;;;;;;;5048699;28;20413;-75
2020/12/03 10:12:49;;;;;;;21.60;12.57;;;;;;;;;;4999972;28;20515;-76
2020/12/03 10:15:22;;;;;;;14.77;9.57;;;;;;;;;;5042018;28;20938;-76
2020/12/03 10:17:50;;;;;;;20.90;10.73;;;;;;;;;;5042319;28;21291;-76
2020/12/03 10:20:17;;;;;;;22.43;12.03;;;;;;;;;;5053956;28;20414;-76
2020/12/03 10:23:09;;;;;;;21.73;12.00;;;;;;;;;;5046899;28;20823;-70
2020/12/03 10:25:39;;;;;;;21.00;10.70;;;;;;;;;;5045387;28;20414;-71
2020/12/03 10:28:11;;;;;;;18.47;10.83;;;;;;;;;;5048310;28;20414;-71
2020/12/03 10:30:38;;;;;;;20.00;10.80;;;;;;;;;;5047396;28;20816;-71
2020/12/03 10:33:08;;;;;;;29.97;12.30;;;;;;;;;;5044481;28;20491;-73
2020/12/03 10:35:34;;;;;;;19.33;9.93;;;;;;;;;;5042445;28;20419;-72
2020/12/03 10:38:02;;;;;;;19.70;10.60;;;;;;;;;;5049511;28;20944;-72
2020/12/03 10:40:29;;;;;;;19.10;10.77;;;;;;;;;;5052014;28;20548;-71
2020/12/03 10:43:07;;;;;;;17.40;11.10;;;;;;;;;;5049677;28;20474;-71
2020/12/03 10:45:37;;;;;;;25.23;10.90;;;;;;;;;;5050433;28;20406;-70
2020/12/03 10:48:21;;;;;;;18.10;10.60;;;;;;;;;;5044327;28;20953;-72
2020/12/03 10:50:49;;;;;;;19.17;10.70;;;;;;;;;;5051114;28;20431;-73
2020/12/03 10:53:16;;;;;;;22.57;10.70;;;;;;;;;;5043083;28;20473;-71
2020/12/03 10:55:43;;;;;;;20.30;11.17;;;;;;;;;;5046559;28;20434;-71
2020/12/03 10:58:11;;;;;;;21.80;10.30;;;;;;;;;;5040262;28;20806;-76
2020/12/03 11:00:37;;;;;;;24.03;10.50;;;;;;;;;;5045472;28;20444;-74
2020/12/03 11:03:08;;;;;;;19.73;8.90;;;;;;;;;;5042096;28;20451;-75
2020/12/03 11:05:34;;;;;;;25.43;11.20;;;;;;;;;;5041421;28;21275;-74
2020/12/03 11:08:01;;;;;;;23.97;11.07;;;;;;;;;;5044492;28;20520;-74
2020/12/03 11:10:28;;;;;;;19.27;11.30;;;;;;;;;;5041474;28;20411;-74
2020/12/03 11:12:58;;;;;;;20.07;9.40;;;;;;;;;;5040565;28;21069;-74
2020/12/03 11:15:28;;;;;;;17.83;9.90;;;;;;;;;;5049839;28;20410;-74
2020/12/03 11:18:01;;;;;;;19.13;9.47;;;;;;;;;;5051875;28;20429;-74
2020/12/03 11:20:30;;;;;;;19.70;10.93;;;;;;;;;;5043581;28;20403;-73
2020/12/03 11:23:02;;;;;;;16.77;9.83;;;;;;;;;;5046618;28;20553;-74
2020/12/03 11:25:29;;;;;;;19.10;10.40;;;;;;;;;;5044431;28;20444;-74
2020/12/03 11:27:59;;;;;;;17.33;9.47;;;;;;;;;;5042878;28;20472;-74
2020/12/03 11:30:27;;;;;;;21.00;10.60;;;;;;;;;;5044003;28;20616;-74
2020/12/03 11:32:55;;;;;;;17.63;10.10;;;;;;;;;;5046415;28;20537;-74
2020/12/03 11:35:31;;;;;;;17.57;9.30;;;;;;;;;;5038716;28;20940;-74
2020/12/03 11:37:58;;;;;;;17.97;9.30;;;;;;;;;;5040124;28;20417;-72
2020/12/03 11:40:31;;;;;;;18.63;10.20;;;;;;;;;;5043465;28;20963;-73
2020/12/03 11:51:25;;;;;;;20.13;9.50;;;;;;;;;;4971108;28;20437;-75
2020/12/03 11:54:01;;;;;;;28.37;10.50;;;;;;;;;;5035436;28;20482;-74
2020/12/03 11:56:29;;;;;;;29.73;12.50;;;;;;;;;;5035366;28;20427;-75
2020/12/03 11:59:30;;;;;;;18.63;10.20;;;;;;;;;;5050114;28;20410;-74
2020/12/03 12:01:56;;;;;;;21.77;11.30;;;;;;;;;;4963746;28;20819;-74
2020/12/03 12:04:41;;;;;;;20.33;9.80;;;;;;;;;;5029958;28;20475;-74
2020/12/03 12:07:17;;;;;;;17.50;9.47;;;;;;;;;;5049027;28;20414;-75
2020/12/03 12:12:32;;;;;;;18.47;10.60;;;;;;;;;;5063660;28;20410;-87
2020/12/03 12:14:58;;;;;;;18.17;11.00;;;;;;;;;;5062311;28;20418;-85
2020/12/03 12:17:34;;;;;;;20.33;10.07;;;;;;;;;;5075178;28;20426;-87
2020/12/03 12:20:07;;;;;;;15.80;10.03;;;;;;;;;;5072527;28;20481;-89
2020/12/03 12:22:41;;;;;;;15.20;9.50;;;;;;;;;;5061502;28;20454;-86
2020/12/03 12:25:07;;;;;;;17.57;9.20;;;;;;;;;;5061111;28;20488;-85
2020/12/03 12:27:48;;;;;;;18.20;10.83;;;;;;;;;;5060201;28;20430;-88
2020/12/03 12:30:19;;;;;;;15.53;9.30;;;;;;;;;;5052584;28;20429;-85
2020/12/03 12:32:45;;;;;;;19.73;9.77;;;;;;;;;;5050389;28;20445;-87
2020/12/03 12:35:11;;;;;;;15.60;9.10;;;;;;;;;;5053737;28;20499;-86
2020/12/03 12:37:37;;;;;;;15.80;9.23;;;;;;;;;;5054596;28;20441;-86
2020/12/03 12:40:04;;;;;;;17.50;10.60;;;;;;;;;;5053463;28;20429;-86
2020/12/03 12:42:32;;;;;;;17.40;9.27;;;;;;;;;;5057869;28;20465;-86
2020/12/03 12:44:58;;;;;;;20.20;9.27;;;;;;;;;;5057645;28;20975;-86
2020/12/03 12:47:25;;;;;;;15.13;9.03;;;;;;;;;;5054338;28;20441;-86
2020/12/03 12:49:51;;;;;;;14.70;8.67;;;;;;;;;;5054902;28;20429;-85
2020/12/03 12:52:17;;;;;;;15.90;9.80;;;;;;;;;;5057936;28;20473;-86
2020/12/03 12:54:44;;;;;;;15.10;8.70;;;;;;;;;;5059020;28;20503;-86
2020/12/03 12:57:10;;;;;;;16.17;10.00;;;;;;;;;;5059364;28;20430;-87
2020/12/03 12:59:36;;;;;;;21.23;8.47;;;;;;;;;;5057337;28;20508;-87
2020/12/03 13:02:02;;;;;;;22.53;8.90;;;;;;;;;;5058474;28;20919;-86
2020/12/03 13:04:28;;;;;;;11.80;7.87;;;;;;;;;;5060367;28;20422;-87
2020/12/03 13:06:56;;;;;;;16.63;8.70;;;;;;;;;;5061477;28;20444;-86
2020/12/03 13:09:22;;;;;;;19.70;9.77;;;;;;;;;;5059076;28;20517;-85
2020/12/03 13:11:50;;;;;;;18.53;9.17;;;;;;;;;;5058215;28;20437;-86
2020/12/03 13:14:16;;;;;;;13.53;7.37;;;;;;;;;;5056236;28;20466;-83
2020/12/03 13:16:42;;;;;;;13.43;7.60;;;;;;;;;;5055830;28;21499;-86
2020/12/03 13:19:08;;;;;;;11.43;8.73;;;;;;;;;;5056661;28;20442;-86
2020/12/03 13:21:35;;;;;;;14.97;8.27;;;;;;;;;;5058940;28;20432;-85
2020/12/03 13:24:01;;;;;;;16.60;8.93;;;;;;;;;;5059288;28;20449;-87
2020/12/03 13:26:28;;;;;;;12.37;7.17;;;;;;;;;;5064064;28;20440;-86
2020/12/03 13:28:55;;;;;;;16.87;8.57;;;;;;;;;;5059946;28;20440;-87
2020/12/03 13:31:21;;;;;;;13.67;7.37;;;;;;;;;;5075417;28;20416;-87
2020/12/03 13:33:47;;;;;;;13.33;8.20;;;;;;;;;;5076434;28;20445;-86
2020/12/03 13:36:14;;;;;;;15.03;9.27;;;;;;;;;;5077114;28;20453;-89
2020/12/03 13:38:40;;;;;;;13.87;8.40;;;;;;;;;;5075486;28;20472;-88
2020/12/03 13:41:06;;;;;;;13.67;7.67;;;;;;;;;;5056347;28;20418;-86
2020/12/03 13:43:35;;;;;;;16.30;8.50;;;;;;;;;;5055570;28;20489;-87
2020/12/03 13:46:01;;;;;;;15.33;8.00;;;;;;;;;;5055183;28;20802;-85
2020/12/03 13:48:27;;;;;;;14.17;8.00;;;;;;;;;;5057514;28;20426;-87
2020/12/03 13:50:53;;;;;;;12.07;7.87;;;;;;;;;;5054106;28;20414;-86
2020/12/03 13:53:22;;;;;;;12.97;9.40;;;;;;;;;;5055282;28;20432;-86
2020/12/03 13:55:51;;;;;;;18.90;8.70;;;;;;;;;;5051066;28;20801;-86
2020/12/03 13:58:17;;;;;;;16.00;7.97;;;;;;;;;;5051025;28;20431;-86
2020/12/03 14:00:43;;;;;;;12.60;7.73;;;;;;;;;;5053434;28;20418;-85
2020/12/03 14:03:09;;;;;;;14.37;7.27;;;;;;;;;;5041206;28;20442;-86
2020/12/03 14:05:35;;;;;;;11.13;7.80;;;;;;;;;;5050592;28;21201;-87
2020/12/03 14:08:02;;;;;;;15.80;7.83;;;;;;;;;;5053427;28;20409;-86
2020/12/03 14:10:28;;;;;;;13.13;8.20;;;;;;;;;;5054148;28;20429;-85
2020/12/03 14:12:54;;;;;;;17.87;8.30;;;;;;;;;;5049590;28;20411;-86
2020/12/03 14:15:25;;;;;;;18.13;7.90;;;;;;;;;;5057114;28;20790;-86
2020/12/03 14:17:51;;;;;;;12.63;8.13;;;;;;;;;;5056151;28;20429;-85
2020/12/03 14:20:18;;;;;;;12.37;7.67;;;;;;;;;;5059932;28;20426;-86
2020/12/03 14:22:47;;;;;;;14.83;6.93;;;;;;;;;;5053481;28;20973;-85
2020/12/03 14:25:17;;;;;;;14.30;8.20;;;;;;;;;;5061424;28;20505;-85
2020/12/03 14:27:45;;;;;;;18.07;8.40;;;;;;;;;;5062620;28;20434;-88
2020/12/03 14:30:11;;;;;;;15.13;8.70;;;;;;;;;;5060374;28;20448;-86
2020/12/03 14:32:37;;;;;;;11.67;7.00;;;;;;;;;;5049873;28;20415;-88
2020/12/03 14:35:04;;;;;;;16.07;8.90;;;;;;;;;;5057446;28;20484;-86
2020/12/03 14:37:35;;;;;;;13.63;8.33;;;;;;;;;;5055881;28;20438;-86
2020/12/03 14:40:02;;;;;;;15.27;9.20;;;;;;;;;;5055514;28;20553;-87
2020/12/03 14:42:28;;;;;;;12.83;7.57;;;;;;;;;;5054089;28;20608;-85